createdAt,value
2018-09-19T00:00:21.692Z,6.53
2018-09-19T00:00:55.591Z,7.00
2018-09-19T00:01:29.444Z,6.37
2018-09-19T00:02:03.690Z,6.40
2018-09-19T00:02:37.597Z,5.93
2018-09-19T00:03:11.964Z,6.67
2018-09-19T00:03:45.983Z,7.80
2018-09-19T00:04:20.056Z,8.50
2018-09-19T00:04:53.915Z,7.93
2018-09-19T00:05:27.751Z,7.07
2018-09-19T00:06:01.659Z,7.37
2018-09-19T00:06:35.633Z,7.90
2018-09-19T00:07:09.486Z,9.50
2018-09-19T00:07:46.986Z,8.43
2018-09-19T00:08:20.885Z,7.53
2018-09-19T00:08:54.745Z,6.90
2018-09-19T00:09:29.775Z,6.73
2018-09-19T00:10:04.174Z,7.20
2018-09-19T00:10:38.339Z,7.30
2018-09-19T00:11:12.418Z,7.50
2018-09-19T00:11:46.612Z,6.80
2018-09-19T00:12:20.515Z,6.90
2018-09-19T00:12:54.489Z,7.80
2018-09-19T00:13:28.355Z,7.07
2018-09-19T00:14:02.225Z,6.87
2018-09-19T00:14:36.067Z,6.77
2018-09-19T00:15:09.953Z,6.60
2018-09-19T00:15:44.011Z,7.20
2018-09-19T00:16:18.235Z,7.30
2018-09-19T00:16:52.279Z,6.90
2018-09-19T00:17:26.125Z,6.90
2018-09-19T00:18:00.330Z,7.13
2018-09-19T00:18:34.473Z,6.83
2018-09-19T00:19:11.391Z,7.57
2018-09-19T00:19:49.515Z,7.20
2018-09-19T00:20:23.467Z,6.57
2018-09-19T00:20:57.366Z,7.87
2018-09-19T00:21:31.579Z,7.07
2018-09-19T00:22:06.706Z,6.53
2018-09-19T00:22:40.577Z,6.90
2018-09-19T00:23:14.438Z,6.60
2018-09-19T00:23:48.331Z,7.40
2018-09-19T00:24:22.437Z,6.40
2018-09-19T00:24:56.279Z,6.43
2018-09-19T00:25:31.429Z,6.20
2018-09-19T00:26:05.499Z,6.80
2018-09-19T00:26:39.706Z,7.03
2018-09-19T00:27:13.889Z,6.10
2018-09-19T00:27:47.885Z,7.30
2018-09-19T00:28:21.731Z,7.37
2018-09-19T00:28:55.971Z,7.40
2018-09-19T00:29:30.006Z,6.93
2018-09-19T00:30:04.521Z,6.60
2018-09-19T00:30:38.385Z,6.93
2018-09-19T00:31:12.576Z,7.93
2018-09-19T00:31:46.509Z,8.00
2018-09-19T00:32:20.371Z,8.03
2018-09-19T00:32:54.209Z,6.60
2018-09-19T00:33:28.158Z,6.93
2018-09-19T00:34:02.052Z,6.50
2018-09-19T00:34:36.452Z,8.63
2018-09-19T00:35:10.529Z,6.77
2018-09-19T00:35:44.397Z,8.03
2018-09-19T00:36:18.270Z,6.87
2018-09-19T00:36:52.795Z,6.70
2018-09-19T00:37:26.748Z,6.77
2018-09-19T00:38:00.605Z,6.70
2018-09-19T00:38:34.465Z,6.13
2018-09-19T00:39:09.213Z,6.43
2018-09-19T00:39:43.057Z,7.20
2018-09-19T00:40:17.238Z,7.53
2018-09-19T00:40:51.158Z,8.10
2018-09-19T00:41:25.031Z,7.03
2018-09-19T00:42:05.809Z,7.00
2018-09-19T00:42:39.869Z,6.87
2018-09-19T00:43:14.102Z,8.17
2018-09-19T00:43:48.302Z,6.80
2018-09-19T00:44:22.137Z,6.60
2018-09-19T00:44:56.019Z,7.97
2018-09-19T00:45:29.994Z,7.20
2018-09-19T00:46:03.828Z,6.90
2018-09-19T00:46:37.690Z,6.63
2018-09-19T00:47:11.642Z,7.00
2018-09-19T00:47:45.550Z,7.07
2018-09-19T00:48:19.429Z,6.17
2018-09-19T00:48:53.294Z,6.87
2018-09-19T00:49:27.305Z,7.23
2018-09-19T00:50:01.707Z,6.70
2018-09-19T00:50:36.443Z,6.83
2018-09-19T00:51:11.971Z,6.97
2018-09-19T00:51:45.826Z,7.73
2018-09-19T00:52:19.777Z,7.37
2018-09-19T00:52:53.693Z,7.63
2018-09-19T00:53:27.573Z,6.63
2018-09-19T00:54:02.890Z,6.67
2018-09-19T00:54:36.766Z,7.30
2018-09-19T00:55:10.673Z,7.07
2018-09-19T00:55:44.865Z,6.70
2018-09-19T00:56:18.782Z,7.50
2018-09-19T00:56:53.697Z,7.40
2018-09-19T00:57:28.774Z,6.60
2018-09-19T00:58:02.881Z,7.50
2018-09-19T00:58:36.720Z,7.20
2018-09-19T00:59:10.572Z,7.77
2018-09-19T00:59:44.755Z,6.90
2018-09-19T01:00:18.679Z,7.07
2018-09-19T01:00:53.056Z,7.70
2018-09-19T01:01:26.926Z,7.67
2018-09-19T01:02:00.763Z,7.20
2018-09-19T01:02:34.981Z,7.27
2018-09-19T01:03:08.891Z,7.37
2018-09-19T01:03:42.864Z,7.70
2018-09-19T01:04:17.075Z,6.83
2018-09-19T01:04:50.951Z,7.43
2018-09-19T01:05:24.805Z,6.57
2018-09-19T01:05:58.671Z,7.37
2018-09-19T01:06:32.573Z,7.93
2018-09-19T01:07:06.959Z,6.77
2018-09-19T01:07:41.173Z,7.77
2018-09-19T01:08:15.048Z,7.00
2018-09-19T01:08:48.962Z,7.70
2018-09-19T01:09:22.826Z,7.07
2018-09-19T01:09:57.069Z,8.27
2018-09-19T01:10:30.930Z,7.20
2018-09-19T01:11:04.813Z,7.67
2018-09-19T01:11:39.026Z,6.53
2018-09-19T01:12:12.922Z,7.40
2018-09-19T01:12:46.960Z,7.37
2018-09-19T01:13:21.172Z,7.43
2018-09-19T01:13:55.039Z,6.80
2018-09-19T01:14:29.073Z,7.20
2018-09-19T01:15:03.143Z,7.97
2018-09-19T01:15:37.099Z,8.20
2018-09-19T01:16:10.948Z,6.90
2018-09-19T01:16:44.854Z,7.20
2018-09-19T01:17:18.720Z,7.30
2018-09-19T01:17:52.555Z,7.20
2018-09-19T01:18:26.425Z,7.10
2018-09-19T01:19:00.278Z,7.10
2018-09-19T01:19:34.505Z,6.73
2018-09-19T01:20:08.721Z,7.50
2018-09-19T01:20:43.005Z,7.10
2018-09-19T01:21:16.900Z,7.03
2018-09-19T01:21:50.733Z,7.13
2018-09-19T01:22:24.605Z,6.90
2018-09-19T01:22:58.458Z,7.60
2018-09-19T01:23:32.403Z,6.20
2018-09-19T01:24:06.433Z,7.20
2018-09-19T01:24:40.292Z,6.83
2018-09-19T01:25:14.511Z,7.33
2018-09-19T01:25:48.387Z,7.33
2018-09-19T01:26:22.559Z,7.80
2018-09-19T01:26:56.428Z,7.23
2018-09-19T01:27:30.321Z,7.13
2018-09-19T01:28:04.157Z,7.07
2018-09-19T01:28:38.011Z,7.73
2018-09-19T01:29:11.871Z,7.77
2018-09-19T01:29:45.775Z,7.73
2018-09-19T01:30:19.691Z,7.10
2018-09-19T01:30:53.930Z,7.13
2018-09-19T01:31:28.303Z,7.37
2018-09-19T01:32:02.533Z,7.80
2018-09-19T01:32:36.389Z,7.40
2018-09-19T01:33:10.243Z,8.00
2018-09-19T01:33:44.153Z,6.83
2018-09-19T01:34:18.197Z,7.57
2018-09-19T01:34:52.245Z,7.73
2018-09-19T01:35:26.136Z,7.50
2018-09-19T01:36:00.030Z,8.03
2018-09-19T01:36:35.412Z,6.60
2018-09-19T01:37:09.271Z,7.80
2018-09-19T01:37:43.142Z,7.70
2018-09-19T01:38:16.967Z,8.23
2018-09-19T01:38:51.309Z,7.80
2018-09-19T01:39:25.171Z,7.90
2018-09-19T01:39:59.361Z,7.23
2018-09-19T01:40:33.573Z,7.03
2018-09-19T01:41:07.983Z,7.23
2018-09-19T01:41:41.822Z,7.20
2018-09-19T01:42:15.685Z,8.33
2018-09-19T01:42:49.537Z,7.20
2018-09-19T01:43:23.694Z,8.40
2018-09-19T01:43:57.594Z,7.30
2018-09-19T01:44:31.638Z,7.47
2018-09-19T01:45:05.536Z,7.90
2018-09-19T01:45:39.877Z,8.10
2018-09-19T01:46:14.078Z,7.50
2018-09-19T01:46:47.929Z,8.33
2018-09-19T01:47:21.849Z,7.17
2018-09-19T01:47:55.745Z,7.17
2018-09-19T01:48:29.612Z,7.20
2018-09-19T01:49:03.476Z,7.73
2018-09-19T01:49:37.545Z,6.20
2018-09-19T01:50:11.402Z,7.73
2018-09-19T01:50:45.617Z,7.10
2018-09-19T01:51:19.811Z,6.70
2018-09-19T01:51:54.449Z,7.23
2018-09-19T01:52:28.367Z,7.30
2018-09-19T01:53:02.237Z,7.13
2018-09-19T01:53:36.089Z,7.03
2018-09-19T01:54:10.294Z,6.97
2018-09-19T01:54:44.143Z,8.13
2018-09-19T01:55:18.309Z,7.30
2018-09-19T01:55:52.547Z,7.00
2018-09-19T01:56:26.392Z,7.40
2018-09-19T01:57:00.263Z,7.53
2018-09-19T01:57:34.129Z,8.07
2018-09-19T01:58:07.997Z,7.40
2018-09-19T01:58:41.868Z,7.50
2018-09-19T01:59:15.750Z,7.97
2018-09-19T01:59:49.604Z,7.90
2018-09-19T02:00:23.444Z,8.40
2018-09-19T02:00:57.360Z,7.60
2018-09-19T02:01:31.685Z,8.10
2018-09-19T02:02:05.570Z,7.37
2018-09-19T02:02:39.455Z,7.20
2018-09-19T02:03:13.330Z,7.70
2018-09-19T02:03:47.184Z,7.80
2018-09-19T02:04:21.037Z,7.53
2018-09-19T02:04:54.879Z,8.23
2018-09-19T02:05:28.735Z,6.67
2018-09-19T02:06:02.592Z,6.70
2018-09-19T02:06:36.459Z,8.80
2018-09-19T02:07:10.353Z,8.13
2018-09-19T02:07:44.544Z,7.90
2018-09-19T02:08:18.371Z,8.20
2018-09-19T02:08:52.221Z,7.43
2018-09-19T02:09:26.037Z,7.20
2018-09-19T02:09:59.927Z,7.63
2018-09-19T02:10:33.925Z,7.47
2018-09-19T02:11:07.828Z,7.53
2018-09-19T02:11:42.393Z,7.90
2018-09-19T02:12:16.223Z,7.37
2018-09-19T02:12:50.119Z,7.83
2018-09-19T02:13:23.937Z,8.90
2018-09-19T02:13:57.791Z,8.37
2018-09-19T02:14:31.655Z,7.70
2018-09-19T02:15:05.921Z,7.33
2018-09-19T02:15:39.745Z,8.33
2018-09-19T02:16:13.637Z,7.40
2018-09-19T02:16:47.463Z,7.63
2018-09-19T02:17:21.355Z,7.97
2018-09-19T02:17:55.558Z,7.20
2018-09-19T02:18:29.441Z,7.13
2018-09-19T02:19:03.655Z,8.30
2018-09-19T02:19:37.557Z,8.37
2018-09-19T02:20:11.472Z,7.50
2018-09-19T02:20:45.357Z,8.07
2018-09-19T02:21:19.207Z,8.43
2018-09-19T02:21:53.126Z,8.07
2018-09-19T02:22:27.179Z,7.50
2018-09-19T02:23:01.379Z,7.80
2018-09-19T02:23:35.242Z,7.03
2018-09-19T02:24:09.137Z,7.87
2018-09-19T02:24:43.218Z,8.20
2018-09-19T02:25:17.067Z,7.53
2018-09-19T02:25:50.908Z,7.60
2018-09-19T02:26:24.799Z,7.70
2018-09-19T02:26:59.014Z,7.80
2018-09-19T02:27:32.894Z,7.60
2018-09-19T02:28:07.002Z,7.67
2018-09-19T02:28:41.186Z,7.47
2018-09-19T02:29:15.192Z,7.40
2018-09-19T02:29:49.063Z,7.50
2018-09-19T02:30:23.060Z,7.50
2018-09-19T02:30:56.921Z,8.20
2018-09-19T02:31:30.811Z,8.40
2018-09-19T02:32:04.685Z,8.67
2018-09-19T02:32:38.534Z,7.00
2018-09-19T02:33:12.419Z,7.60
2018-09-19T02:33:46.272Z,9.00
2018-09-19T02:34:20.118Z,8.40
2018-09-19T02:34:53.969Z,8.10
2018-09-19T02:35:27.808Z,7.50
2018-09-19T02:36:01.716Z,7.40
2018-09-19T02:36:35.777Z,8.03
2018-09-19T02:37:09.623Z,8.90
2018-09-19T02:37:43.461Z,8.30
2018-09-19T02:38:17.335Z,8.10
2018-09-19T02:38:53.517Z,8.10
2018-09-19T02:39:27.399Z,8.30
2018-09-19T02:40:01.249Z,8.10
2018-09-19T02:40:35.109Z,7.43
2018-09-19T02:41:09.309Z,7.97
2018-09-19T02:41:43.173Z,8.30
2018-09-19T02:42:17.029Z,9.10
2018-09-19T02:42:50.879Z,8.37
2018-09-19T02:43:24.731Z,8.30
2018-09-19T02:43:58.595Z,8.63
2018-09-19T02:44:32.533Z,9.00
2018-09-19T02:45:06.384Z,8.37
2018-09-19T02:45:40.234Z,9.07
2018-09-19T02:46:14.277Z,9.10
2018-09-19T02:46:48.215Z,9.97
2018-09-19T02:47:22.105Z,9.53
2018-09-19T02:47:55.967Z,8.00
2018-09-19T02:48:29.868Z,9.90
2018-09-19T02:49:04.293Z,9.53
2018-09-19T02:49:38.350Z,9.13
2018-09-19T02:50:12.539Z,9.90
2018-09-19T02:50:46.426Z,9.20
2018-09-19T02:51:20.675Z,9.87
2018-09-19T02:51:57.547Z,8.90
2018-09-19T02:52:31.396Z,8.70
2018-09-19T02:53:05.267Z,9.40
2018-09-19T02:53:39.461Z,9.80
2018-09-19T02:54:13.334Z,8.93
2018-09-19T02:54:47.206Z,9.50
2018-09-19T02:55:21.130Z,9.60
2018-09-19T02:55:55.316Z,9.40
2018-09-19T02:56:29.851Z,9.10
2018-09-19T02:57:04.037Z,8.13
2018-09-19T02:57:37.919Z,9.97
2018-09-19T02:58:11.777Z,10.50
2018-09-19T02:58:45.677Z,10.30
2018-09-19T02:59:19.712Z,10.23
2018-09-19T02:59:53.903Z,9.80
2018-09-19T03:00:27.760Z,10.00
2018-09-19T03:01:01.628Z,9.77
2018-09-19T03:01:35.533Z,10.67
2018-09-19T03:03:13.437Z,9.37
2018-09-19T03:03:47.682Z,10.43
2018-09-19T03:04:21.557Z,10.47
2018-09-19T03:04:55.405Z,10.80
2018-09-19T03:05:29.307Z,10.53
2018-09-19T03:06:03.159Z,10.20
2018-09-19T03:06:37.059Z,10.60
2018-09-19T03:07:10.931Z,9.60
2018-09-19T03:07:45.337Z,10.70
2018-09-19T03:08:19.211Z,10.40
2018-09-19T03:08:53.103Z,10.10
2018-09-19T03:09:26.996Z,10.53
2018-09-19T03:10:00.858Z,11.93
2018-09-19T03:10:35.044Z,12.33
2018-09-19T03:11:08.907Z,10.87
2018-09-19T03:11:42.781Z,10.90
2018-09-19T03:12:16.623Z,10.90
2018-09-19T03:12:50.513Z,11.60
2018-09-19T03:13:24.363Z,10.43
2018-09-19T03:13:58.223Z,11.70
2018-09-19T03:14:32.116Z,12.03
2018-09-19T03:15:06.173Z,10.23
2018-09-19T03:15:40.049Z,10.57
2018-09-19T03:16:13.926Z,11.57
2018-09-19T03:16:47.808Z,10.37
2018-09-19T03:17:21.791Z,10.00
2018-09-19T03:17:55.783Z,10.30
2018-09-19T03:18:29.700Z,10.97
2018-09-19T03:19:03.912Z,10.70
2018-09-19T03:19:37.757Z,11.03
2018-09-19T03:20:11.628Z,11.30
2018-09-19T03:20:45.829Z,9.80
2018-09-19T03:21:19.951Z,11.13
2018-09-19T03:21:53.824Z,10.00
2018-09-19T03:22:27.742Z,10.40
2018-09-19T03:23:01.616Z,12.13
2018-09-19T03:23:35.477Z,10.40
2018-09-19T03:24:09.290Z,11.90
2018-09-19T03:24:43.153Z,10.83
2018-09-19T03:25:17.003Z,11.40
2018-09-19T03:25:50.866Z,11.07
2018-09-19T03:26:24.745Z,11.20
2018-09-19T03:26:58.725Z,10.93
2018-09-19T03:27:32.586Z,10.33
2018-09-19T03:28:06.676Z,11.50
2018-09-19T03:28:40.560Z,10.73
2018-09-19T03:29:14.405Z,10.47
2018-09-19T03:29:48.248Z,10.37
2018-09-19T03:30:22.110Z,10.23
2018-09-19T03:30:56.523Z,10.30
2018-09-19T03:31:30.390Z,11.00
2018-09-19T03:32:04.592Z,10.90
2018-09-19T03:32:38.461Z,11.37
2018-09-19T03:33:12.312Z,11.57
2018-09-19T03:33:46.204Z,11.87
2018-09-19T03:34:20.118Z,11.30
2018-09-19T03:34:54.266Z,9.60
2018-09-19T03:35:28.143Z,11.67
2018-09-19T03:36:02.208Z,10.83
2018-09-19T03:36:36.048Z,11.83
2018-09-19T03:37:10.285Z,10.40
2018-09-19T03:37:44.138Z,12.73
2018-09-19T03:38:17.951Z,10.20
2018-09-19T03:38:52.150Z,11.50
2018-09-19T03:39:26.008Z,11.57
2018-09-19T03:39:59.866Z,11.27
2018-09-19T03:40:34.306Z,10.33
2018-09-19T03:41:08.160Z,9.50
2018-09-19T03:41:42.541Z,10.50
2018-09-19T03:42:16.422Z,10.90
2018-09-19T03:42:50.280Z,11.70
2018-09-19T03:43:24.092Z,10.77
2018-09-19T03:43:57.952Z,10.43
2018-09-19T03:44:31.789Z,10.10
2018-09-19T03:45:05.636Z,12.10
2018-09-19T03:45:39.469Z,10.20
2018-09-19T03:46:13.556Z,11.80
2018-09-19T03:46:47.410Z,11.47
2018-09-19T03:47:21.663Z,11.33
2018-09-19T03:47:55.511Z,11.70
2018-09-19T03:48:29.702Z,11.60
2018-09-19T03:49:03.934Z,11.23
2018-09-19T03:49:37.800Z,10.33
2018-09-19T03:50:11.645Z,11.13
2018-09-19T03:50:45.512Z,11.40
2018-09-19T03:51:19.352Z,12.00
2018-09-19T03:51:54.032Z,10.17
2018-09-19T03:52:27.903Z,9.83
2018-09-19T03:53:01.782Z,10.70
2018-09-19T03:53:35.659Z,10.00
2018-09-19T03:54:09.820Z,9.97
2018-09-19T03:54:43.678Z,10.00
2018-09-19T03:55:17.548Z,10.87
2018-09-19T03:55:51.507Z,9.70
2018-09-19T03:56:25.377Z,10.63
2018-09-19T03:56:59.224Z,10.20
2018-09-19T03:57:33.124Z,9.90
2018-09-19T03:58:07.000Z,10.60
2018-09-19T03:58:41.368Z,10.73
2018-09-19T03:59:15.217Z,11.00
2018-09-19T03:59:49.076Z,10.90
2018-09-19T04:00:22.907Z,9.40
2018-09-19T04:00:56.804Z,9.93
2018-09-19T04:01:30.633Z,10.70
2018-09-19T04:02:04.752Z,10.10
2018-09-19T04:02:38.612Z,10.00
2018-09-19T04:03:12.477Z,10.40
2018-09-19T04:03:46.711Z,11.13
2018-09-19T04:04:20.620Z,10.60
2018-09-19T04:04:54.673Z,10.10
2018-09-19T04:05:28.774Z,10.53
2018-09-19T04:06:02.720Z,11.03
2018-09-19T04:06:36.594Z,10.80
2018-09-19T04:07:10.558Z,9.20
2018-09-19T04:07:44.456Z,9.70
2018-09-19T04:08:18.347Z,8.83
2018-09-19T04:08:52.202Z,9.50
2018-09-19T04:09:26.081Z,10.50
2018-09-19T04:09:59.906Z,9.80
2018-09-19T04:10:33.759Z,8.83
2018-09-19T04:11:07.976Z,8.87
2018-09-19T04:11:42.016Z,9.73
2018-09-19T04:12:15.853Z,9.40
2018-09-19T04:12:49.756Z,8.90
2018-09-19T04:13:23.619Z,9.07
2018-09-19T04:13:57.430Z,9.27
2018-09-19T04:14:31.353Z,8.83
2018-09-19T04:15:05.234Z,8.57
2018-09-19T04:15:39.103Z,9.50
2018-09-19T04:16:12.958Z,10.83
2018-09-19T04:16:46.824Z,9.87
2018-09-19T04:17:20.685Z,8.73
2018-09-19T04:17:54.607Z,9.40
2018-09-19T04:18:28.643Z,9.03
2018-09-19T04:19:02.500Z,9.20
2018-09-19T04:19:36.378Z,9.17
2018-09-19T04:20:10.288Z,9.00
2018-09-19T04:20:44.150Z,10.63
2018-09-19T04:21:18.021Z,9.70
2018-09-19T04:21:53.039Z,9.67
2018-09-19T04:22:26.942Z,8.90
2018-09-19T04:23:00.823Z,9.40
2018-09-19T04:23:34.679Z,8.80
2018-09-19T04:24:08.661Z,8.37
2018-09-19T04:24:42.854Z,9.60
2018-09-19T04:25:16.709Z,8.30
2018-09-19T04:25:50.584Z,8.93
2018-09-19T04:26:24.454Z,9.60
2018-09-19T04:26:58.282Z,8.93
2018-09-19T04:27:32.141Z,8.87
2018-09-19T04:28:06.148Z,8.73
2018-09-19T04:28:40.032Z,9.73
2018-09-19T04:29:14.070Z,9.27
2018-09-19T04:29:47.942Z,9.23
2018-09-19T04:30:22.131Z,8.63
2018-09-19T04:30:55.937Z,8.57
2018-09-19T04:31:29.867Z,8.47
2018-09-19T04:32:04.073Z,8.90
2018-09-19T04:32:38.422Z,9.50
2018-09-19T04:33:12.282Z,9.10
2018-09-19T04:33:46.175Z,8.60
2018-09-19T04:34:20.039Z,8.60
2018-09-19T04:34:53.963Z,9.50
2018-09-19T04:35:27.799Z,7.93
2018-09-19T04:36:01.970Z,9.60
2018-09-19T04:36:35.921Z,8.83
2018-09-19T04:37:09.774Z,8.73
2018-09-19T04:37:43.604Z,9.20
2018-09-19T04:38:17.470Z,9.17
2018-09-19T04:38:51.325Z,8.10
2018-09-19T04:39:25.214Z,8.23
2018-09-19T04:39:59.380Z,8.77
2018-09-19T04:40:33.498Z,8.50
2018-09-19T04:41:08.048Z,8.20
2018-09-19T04:41:42.287Z,9.33
2018-09-19T04:42:16.136Z,9.00
2018-09-19T04:42:50.878Z,9.03
2018-09-19T04:43:24.786Z,9.30
2018-09-19T04:43:58.639Z,8.80
2018-09-19T04:44:32.503Z,9.33
2018-09-19T04:45:06.408Z,9.97
2018-09-19T04:45:40.424Z,8.90
2018-09-19T04:46:14.268Z,9.03
2018-09-19T04:46:48.149Z,9.00
2018-09-19T04:47:22.334Z,9.23
2018-09-19T04:47:56.299Z,8.33
2018-09-19T04:48:30.149Z,9.70
2018-09-19T04:49:04.393Z,8.93
2018-09-19T04:49:38.232Z,8.57
2018-09-19T04:50:12.600Z,9.60
2018-09-19T04:50:46.470Z,9.73
2018-09-19T04:51:20.403Z,9.07
2018-09-19T04:52:01.022Z,9.50
2018-09-19T04:52:35.622Z,8.80
2018-09-19T04:53:09.453Z,10.00
2018-09-19T04:53:43.686Z,8.80
2018-09-19T04:54:17.527Z,9.20
2018-09-19T04:54:51.718Z,9.73
2018-09-19T04:55:25.615Z,10.00
2018-09-19T04:55:59.477Z,9.60
2018-09-19T04:56:33.350Z,8.97
2018-09-19T04:57:07.268Z,8.70
2018-09-19T04:57:41.192Z,9.37
2018-09-19T04:58:15.033Z,8.07
2018-09-19T04:58:48.939Z,8.97
2018-09-19T04:59:22.849Z,8.70
2018-09-19T04:59:56.743Z,10.03
2018-09-19T05:00:30.588Z,8.90
2018-09-19T05:01:04.432Z,8.60
2018-09-19T05:01:38.252Z,7.70
2018-09-19T05:02:12.498Z,8.93
2018-09-19T05:02:46.358Z,8.50
2018-09-19T05:03:20.262Z,8.83
2018-09-19T05:03:54.666Z,9.43
2018-09-19T05:04:28.522Z,9.97
2018-09-19T05:05:02.380Z,9.20
2018-09-19T05:05:36.553Z,10.37
2018-09-19T05:06:11.024Z,9.00
2018-09-19T05:06:44.889Z,8.80
2018-09-19T05:07:18.785Z,9.93
2018-09-19T05:07:52.869Z,9.20
2018-09-19T05:08:26.712Z,8.70
2018-09-19T05:09:00.582Z,9.00
2018-09-19T05:09:34.456Z,8.63
2018-09-19T05:10:08.405Z,9.40
2018-09-19T05:10:42.246Z,9.20
2018-09-19T05:11:16.423Z,9.60
2018-09-19T05:11:50.465Z,9.67
2018-09-19T05:12:24.352Z,9.33
2018-09-19T05:12:58.203Z,9.53
2018-09-19T05:13:32.069Z,8.63
2018-09-19T05:14:06.572Z,8.67
2018-09-19T05:14:40.602Z,8.63
2018-09-19T05:15:14.498Z,9.63
2018-09-19T05:15:49.256Z,8.70
2018-09-19T05:16:23.177Z,8.27
2018-09-19T05:16:57.042Z,9.17
2018-09-19T05:17:31.035Z,8.73
2018-09-19T05:18:04.977Z,8.93
2018-09-19T05:18:39.245Z,8.60
2018-09-19T05:19:13.158Z,8.60
2018-09-19T05:19:47.032Z,8.30
2018-09-19T05:20:20.919Z,8.73
2018-09-19T05:20:54.786Z,8.77
2018-09-19T05:21:29.028Z,8.47
2018-09-19T05:22:02.921Z,7.93
2018-09-19T05:22:37.179Z,8.67
2018-09-19T05:23:11.021Z,9.60
2018-09-19T05:23:44.872Z,9.23
2018-09-19T05:24:18.801Z,8.83
2018-09-19T05:24:52.689Z,8.90
2018-09-19T05:25:26.532Z,8.90
2018-09-19T05:26:00.402Z,8.87
2018-09-19T05:26:34.270Z,9.03
2018-09-19T05:27:08.775Z,8.90
2018-09-19T05:27:42.654Z,8.47
2018-09-19T05:28:16.564Z,8.10
2018-09-19T05:28:50.460Z,10.53
2018-09-19T05:29:24.350Z,10.30
2018-09-19T05:29:58.206Z,12.93
2018-09-19T05:30:32.108Z,10.60
2018-09-19T05:31:05.926Z,9.13
2018-09-19T05:31:39.824Z,8.70
2018-09-19T05:32:13.706Z,7.63
2018-09-19T05:32:47.614Z,7.97
2018-09-19T05:33:21.828Z,8.40
2018-09-19T05:33:55.654Z,9.13
2018-09-19T05:34:29.566Z,9.00
2018-09-19T05:35:03.455Z,8.00
2018-09-19T05:35:37.339Z,8.80
2018-09-19T05:36:11.241Z,8.40
2018-09-19T05:36:45.113Z,8.67
2018-09-19T05:37:18.980Z,7.93
2018-09-19T05:37:52.839Z,8.70
2018-09-19T05:38:26.724Z,8.50
2018-09-19T05:39:00.620Z,8.50
2018-09-19T05:39:34.534Z,8.10
2018-09-19T05:40:08.864Z,9.80
2018-09-19T05:40:42.726Z,8.63
2018-09-19T05:41:16.614Z,8.00
2018-09-19T05:41:50.508Z,8.30
2018-09-19T05:42:24.402Z,7.90
2018-09-19T05:42:58.295Z,8.37
2018-09-19T05:43:32.184Z,8.90
2018-09-19T05:44:06.148Z,9.40
2018-09-19T05:44:40.089Z,7.50
2018-09-19T05:45:13.990Z,7.87
2018-09-19T05:45:48.498Z,8.53
2018-09-19T05:46:22.729Z,7.43
2018-09-19T05:46:56.808Z,8.80
2018-09-19T05:47:30.870Z,7.77
2018-09-19T05:48:04.749Z,8.40
2018-09-19T05:48:38.621Z,8.70
2018-09-19T05:49:12.513Z,8.63
2018-09-19T05:49:46.581Z,8.17
2018-09-19T05:50:20.430Z,9.50
2018-09-19T05:50:54.348Z,9.20
2018-09-19T05:51:28.180Z,7.93
2018-09-19T05:52:02.298Z,8.77
2018-09-19T05:52:36.487Z,7.70
2018-09-19T05:53:10.357Z,9.30
2018-09-19T05:53:44.197Z,7.60
2018-09-19T05:54:18.065Z,8.50
2018-09-19T05:54:51.973Z,9.20
2018-09-19T05:55:25.834Z,8.93
2018-09-19T05:56:00.023Z,8.70
2018-09-19T05:56:33.909Z,8.10
2018-09-19T05:57:07.808Z,9.13
2018-09-19T05:57:41.668Z,7.93
2018-09-19T05:58:15.556Z,8.03
2018-09-19T05:58:49.846Z,8.30
2018-09-19T05:59:23.712Z,9.17
2018-09-19T05:59:57.612Z,9.17
2018-09-19T06:00:31.480Z,8.57
2018-09-19T06:01:05.354Z,8.97
2018-09-19T06:01:39.630Z,9.50
2018-09-19T06:02:13.535Z,9.30
2018-09-19T06:02:48.568Z,8.60
2018-09-19T06:03:22.678Z,9.07
2018-09-19T06:03:56.540Z,9.40
2018-09-19T06:04:30.414Z,8.07
2018-09-19T06:05:04.358Z,9.17
2018-09-19T06:05:38.498Z,8.93
2018-09-19T06:06:12.341Z,9.73
2018-09-19T06:06:46.196Z,9.33
2018-09-19T06:07:20.132Z,9.13
2018-09-19T06:07:54.376Z,8.87
2018-09-19T06:08:28.264Z,8.60
2018-09-19T06:09:02.144Z,10.03
2018-09-19T06:09:36.005Z,8.93
2018-09-19T06:10:09.924Z,8.77
2018-09-19T06:10:43.776Z,8.17
2018-09-19T06:11:17.627Z,9.07
2018-09-19T06:11:51.501Z,8.80
2018-09-19T06:12:25.707Z,8.67
2018-09-19T06:13:00.037Z,8.20
2018-09-19T06:13:33.975Z,10.07
2018-09-19T06:14:08.340Z,9.20
2018-09-19T06:14:45.253Z,8.83
2018-09-19T06:15:19.168Z,8.80
2018-09-19T06:15:53.024Z,8.10
2018-09-19T06:16:26.900Z,9.43
2018-09-19T06:17:00.711Z,9.13
2018-09-19T06:17:34.581Z,8.43
2018-09-19T06:18:08.490Z,9.37
2018-09-19T06:18:42.344Z,9.80
2018-09-19T06:19:16.283Z,9.27
2018-09-19T06:19:50.767Z,8.50
2018-09-19T06:20:24.646Z,9.07
2018-09-19T06:20:58.502Z,8.60
2018-09-19T06:21:32.385Z,9.80
2018-09-19T06:22:06.968Z,9.30
2018-09-19T06:22:40.884Z,8.80
2018-09-19T06:23:14.718Z,10.27
2018-09-19T06:23:48.592Z,9.90
2018-09-19T06:24:22.440Z,8.90
2018-09-19T06:24:56.301Z,10.00
2018-09-19T06:25:30.236Z,8.77
2018-09-19T06:26:04.685Z,8.80
2018-09-19T06:26:38.570Z,9.23
2018-09-19T06:27:12.426Z,8.83
2018-09-19T06:27:46.340Z,10.13
2018-09-19T06:28:20.233Z,9.13
2018-09-19T06:28:54.661Z,9.60
2018-09-19T06:29:28.686Z,10.37
2018-09-19T06:30:02.716Z,9.73
2018-09-19T06:30:36.714Z,8.80
2018-09-19T06:31:10.734Z,9.17
2018-09-19T06:31:44.571Z,8.80
2018-09-19T06:32:18.416Z,9.60
2018-09-19T06:32:52.368Z,9.10
2018-09-19T06:33:26.422Z,8.77
2018-09-19T06:34:00.480Z,9.40
2018-09-19T06:34:34.329Z,10.20
2018-09-19T06:35:08.260Z,10.33
2018-09-19T06:35:42.131Z,9.90
2018-09-19T06:36:15.999Z,9.50
2018-09-19T06:36:50.588Z,8.93
2018-09-19T06:37:24.475Z,8.13
2018-09-19T06:37:58.343Z,9.43
2018-09-19T06:38:32.218Z,9.90
2018-09-19T06:39:07.998Z,10.77
2018-09-19T06:39:41.876Z,10.37
2018-09-19T06:40:16.169Z,9.80
2018-09-19T06:40:50.415Z,9.50
2018-09-19T06:41:24.380Z,9.70
2018-09-19T06:41:58.407Z,9.50
2018-09-19T06:42:32.268Z,9.33
2018-09-19T06:43:06.187Z,9.80
2018-09-19T06:43:40.049Z,8.57
2018-09-19T06:44:13.886Z,8.27
2018-09-19T06:44:48.134Z,9.87
2018-09-19T06:45:22.010Z,8.67
2018-09-19T06:45:55.905Z,9.53
2018-09-19T06:46:30.110Z,9.70
2018-09-19T06:47:04.392Z,8.43
2018-09-19T06:47:38.532Z,9.60
2018-09-19T06:48:12.409Z,9.33
2018-09-19T06:48:46.291Z,8.73
2018-09-19T06:49:20.161Z,9.20
2018-09-19T06:49:54.164Z,9.70
2018-09-19T06:50:28.037Z,8.57
2018-09-19T06:51:01.895Z,8.70
2018-09-19T06:51:35.768Z,8.60
2018-09-19T06:52:09.687Z,8.97
2018-09-19T06:52:43.759Z,7.70
2018-09-19T06:53:17.613Z,8.10
2018-09-19T06:53:51.485Z,7.20
2018-09-19T06:54:25.357Z,7.27
2018-09-19T06:54:59.364Z,8.23
2018-09-19T06:55:33.256Z,8.40
2018-09-19T06:56:07.863Z,7.83
2018-09-19T06:56:41.703Z,7.73
2018-09-19T06:57:15.627Z,7.93
2018-09-19T06:57:49.502Z,8.60
2018-09-19T06:58:23.548Z,8.03
2018-09-19T06:58:57.420Z,8.23
2018-09-19T06:59:31.347Z,8.03
2018-09-19T07:00:06.063Z,8.80
2018-09-19T07:00:39.953Z,7.97
2018-09-19T07:01:13.854Z,9.17
2018-09-19T07:01:47.869Z,7.47
2018-09-19T07:02:22.120Z,8.07
2018-09-19T07:02:56.121Z,7.90
2018-09-19T07:03:29.992Z,7.73
2018-09-19T07:04:04.181Z,7.73
2018-09-19T07:04:38.033Z,7.13
2018-09-19T07:05:11.919Z,7.37
2018-09-19T07:05:45.866Z,7.20
2018-09-19T07:06:19.955Z,7.50
2018-09-19T07:06:53.832Z,7.27
2018-09-19T07:07:27.741Z,7.17
2018-09-19T07:08:01.608Z,6.37
2018-09-19T07:08:35.529Z,8.53
2018-09-19T07:09:10.239Z,7.53
2018-09-19T07:09:44.115Z,6.90
2018-09-19T07:10:18.341Z,7.30
2018-09-19T07:10:52.212Z,8.30
2018-09-19T07:11:26.067Z,6.70
2018-09-19T07:11:59.936Z,6.90
2018-09-19T07:12:33.789Z,7.30
2018-09-19T07:13:07.658Z,7.13
2018-09-19T07:13:41.504Z,7.30
2018-09-19T07:14:15.406Z,7.40
2018-09-19T07:14:49.463Z,6.60
2018-09-19T07:15:23.334Z,7.10
2018-09-19T07:15:57.532Z,7.90
2018-09-19T07:16:32.022Z,6.93
2018-09-19T07:17:06.569Z,7.40
2018-09-19T07:17:40.439Z,7.00
2018-09-19T07:18:14.299Z,6.33
2018-09-19T07:18:48.234Z,6.67
2018-09-19T07:19:22.615Z,7.60
2018-09-19T07:19:56.801Z,7.07
2018-09-19T07:20:30.997Z,7.97
2018-09-19T07:21:04.833Z,6.83
2018-09-19T07:21:38.769Z,7.63
2018-09-19T07:22:12.621Z,7.03
2018-09-19T07:22:46.474Z,6.70
2018-09-19T07:23:20.357Z,7.30
2018-09-19T07:23:54.289Z,7.33
2018-09-19T07:24:28.325Z,6.40
2018-09-19T07:25:02.679Z,6.97
2018-09-19T07:25:36.694Z,7.57
2018-09-19T07:26:10.562Z,6.53
2018-09-19T07:26:44.457Z,7.13
2018-09-19T07:27:18.660Z,6.57
2018-09-19T07:27:52.534Z,6.60
2018-09-19T07:28:26.363Z,6.67
2018-09-19T07:29:00.251Z,8.27
2018-09-19T07:29:34.135Z,7.57
2018-09-19T07:30:08.221Z,7.70
2018-09-19T07:30:42.089Z,6.83
2018-09-19T07:31:16.354Z,7.30
2018-09-19T07:31:50.747Z,6.73